createdAt,value
2019-05-11T00:01:59.731Z,97971.75
2019-05-11T00:07:05.749Z,97977.11
2019-05-11T00:12:11.019Z,97981.82
2019-05-11T00:17:22.027Z,97962.34
2019-05-11T00:22:27.269Z,97963.70
2019-05-11T00:27:32.437Z,97966.24
2019-05-11T00:32:39.119Z,97973.98
2019-05-11T00:37:44.292Z,97977.16
2019-05-11T00:42:49.532Z,97970.39
2019-05-11T00:47:54.629Z,97954.95
2019-05-11T00:52:59.862Z,97943.66
2019-05-11T00:58:05.133Z,97948.38
2019-05-11T01:03:11.449Z,97942.70
2019-05-11T01:08:16.695Z,97941.19
2019-05-11T01:13:22.181Z,97952.27
2019-05-11T01:18:28.516Z,97957.81
2019-05-11T01:23:34.126Z,97948.97
2019-05-11T01:28:39.380Z,97938.38
2019-05-11T01:33:44.672Z,97919.20
2019-05-11T01:38:51.111Z,97895.77
2019-05-11T01:43:56.669Z,97875.95
2019-05-11T01:49:02.420Z,97885.67
2019-05-11T01:54:07.744Z,97897.23
2019-05-11T01:59:14.833Z,97898.40
2019-05-11T02:04:20.010Z,97898.88
2019-05-11T02:09:25.278Z,97895.33
2019-05-11T02:14:31.527Z,97890.01
2019-05-11T02:19:36.722Z,97879.98
2019-05-11T02:24:41.983Z,97876.82
2019-05-11T02:29:47.247Z,97870.32
2019-05-11T02:34:52.542Z,97871.66
2019-05-11T02:39:57.831Z,97882.73
2019-05-11T02:45:03.816Z,97875.34
2019-05-11T02:50:09.781Z,97877.03
2019-05-11T02:55:15.052Z,97862.97
2019-05-11T03:00:24.873Z,97860.11
2019-05-11T03:05:30.091Z,97859.30
2019-05-11T03:10:35.442Z,97854.95
2019-05-11T03:15:40.707Z,97856.81
2019-05-11T03:20:50.438Z,97856.30
2019-05-11T03:25:55.743Z,97845.26
2019-05-11T03:31:01.270Z,97846.56
2019-05-11T03:36:06.824Z,97840.22
2019-05-11T03:41:12.277Z,97845.51
2019-05-11T03:46:17.471Z,97854.28
2019-05-11T03:51:22.704Z,97854.63
2019-05-11T03:56:28.225Z,97849.13
2019-05-11T04:01:34.329Z,97837.11
2019-05-11T04:06:39.424Z,97847.19
2019-05-11T04:11:44.945Z,97835.28
2019-05-11T04:16:50.342Z,97826.63
2019-05-11T04:21:55.704Z,97817.09
2019-05-11T04:27:00.787Z,97822.63
2019-05-11T04:32:06.010Z,97831.53
2019-05-11T04:37:11.584Z,97827.68
2019-05-11T04:42:16.665Z,97826.00
2019-05-11T04:47:21.897Z,97827.52
2019-05-11T04:52:27.143Z,97821.11
2019-05-11T04:57:32.373Z,97822.66
2019-05-11T05:02:37.609Z,97825.48
2019-05-11T05:07:49.005Z,97814.92
2019-05-11T05:12:53.333Z,97814.58
2019-05-11T05:17:58.329Z,97804.02
2019-05-11T05:23:03.527Z,97807.08
2019-05-11T05:28:09.046Z,97800.22
2019-05-11T05:33:14.366Z,97793.52
2019-05-11T05:38:19.556Z,97795.85
2019-05-11T05:43:28.320Z,97797.73
2019-05-11T05:48:31.913Z,97791.19
2019-05-11T05:53:37.371Z,97799.27
2019-05-11T05:58:42.489Z,97806.84
2019-05-11T06:03:47.919Z,97797.17
2019-05-11T06:08:53.885Z,97802.56
2019-05-11T06:14:00.378Z,97790.13
2019-05-11T06:19:07.086Z,97787.80
2019-05-11T06:24:12.510Z,97800.23
2019-05-11T06:29:21.493Z,97793.17
2019-05-11T06:34:24.875Z,97788.45
2019-05-11T06:39:30.335Z,97784.95
2019-05-11T06:44:35.606Z,97798.91
2019-05-11T06:49:41.039Z,97790.35
2019-05-11T06:54:46.263Z,97787.34
2019-05-11T06:59:51.782Z,97782.81
2019-05-11T07:04:57.196Z,97788.87
2019-05-11T07:10:02.364Z,97788.69
2019-05-11T07:15:09.076Z,97783.15
2019-05-11T07:20:14.696Z,97787.18
2019-05-11T07:25:20.362Z,97790.52
2019-05-11T07:30:25.472Z,97785.15
2019-05-11T07:35:31.444Z,97777.42
2019-05-11T07:40:38.492Z,97773.41
2019-05-11T07:45:43.906Z,97767.19
2019-05-11T07:50:49.134Z,97759.13
2019-05-11T07:55:54.741Z,97758.28
2019-05-11T08:01:00.037Z,97758.95
2019-05-11T08:06:05.546Z,97754.94
2019-05-11T08:11:10.802Z,97740.49
2019-05-11T08:16:18.322Z,97738.14
2019-05-11T08:21:22.947Z,97732.77
2019-05-11T08:26:28.562Z,97711.28
2019-05-11T08:31:34.865Z,97706.39
2019-05-11T08:36:40.108Z,97710.11
2019-05-11T08:41:45.879Z,97712.63
2019-05-11T08:46:51.364Z,97712.61
2019-05-11T08:51:57.817Z,97713.95
2019-05-11T08:57:03.893Z,97716.14
2019-05-11T09:02:09.842Z,97710.61
2019-05-11T09:07:15.011Z,97709.76
2019-05-11T09:12:20.191Z,97708.25
2019-05-11T09:17:26.098Z,97706.23
2019-05-11T09:22:31.466Z,97686.76
2019-05-11T09:27:37.638Z,97707.25
2019-05-11T09:32:43.772Z,97707.07
2019-05-11T09:37:49.796Z,97702.55
2019-05-11T09:42:55.442Z,97696.14
2019-05-11T09:48:00.856Z,97696.45
2019-05-11T09:53:08.544Z,97703.51
2019-05-11T09:58:13.455Z,97718.78
2019-05-11T10:03:18.992Z,97731.41
2019-05-11T10:08:24.257Z,97737.42
2019-05-11T10:13:29.612Z,97738.77
2019-05-11T10:18:34.767Z,97732.38
2019-05-11T10:23:42.630Z,97726.67
2019-05-11T10:28:48.135Z,97716.72
2019-05-11T10:33:53.573Z,97718.22
2019-05-11T10:38:59.030Z,97715.16
2019-05-11T10:44:04.674Z,97722.36
2019-05-11T10:49:09.933Z,97723.74
2019-05-11T10:54:18.510Z,97726.77
2019-05-11T10:59:23.373Z,97710.18
2019-05-11T11:04:29.122Z,97707.98
2019-05-11T11:09:34.375Z,97707.16
2019-05-11T11:14:40.013Z,97698.91
2019-05-11T11:19:48.476Z,97696.85
2019-05-11T11:24:53.411Z,97699.05
2019-05-11T11:29:58.666Z,97697.86
2019-05-11T11:35:04.894Z,97699.02
2019-05-11T11:40:11.360Z,97710.44
2019-05-11T11:45:19.378Z,97703.87
2019-05-11T11:50:24.619Z,97700.31
2019-05-11T11:55:29.853Z,97697.58
2019-05-11T12:00:35.081Z,97691.17
2019-05-11T12:05:40.224Z,97702.28
2019-05-11T12:10:45.504Z,97710.69
2019-05-11T12:15:50.939Z,97716.92
2019-05-11T12:20:58.562Z,97726.11
2019-05-11T12:26:03.621Z,97736.87
2019-05-11T12:31:08.886Z,97735.25
2019-05-11T12:36:14.184Z,97734.62
2019-05-11T12:41:19.355Z,97737.01
2019-05-11T12:46:24.522Z,97757.18
2019-05-11T12:51:29.880Z,97760.91
2019-05-11T12:56:35.101Z,97775.56
2019-05-11T13:01:40.609Z,97779.95
2019-05-11T13:06:47.738Z,97775.41
2019-05-11T13:11:52.643Z,97766.17
2019-05-11T13:16:59.004Z,97794.55
2019-05-11T13:22:05.129Z,97794.57
2019-05-11T13:27:10.364Z,97799.78
2019-05-11T13:32:15.674Z,97809.85
2019-05-11T13:37:20.949Z,97804.63
2019-05-11T13:42:27.750Z,97806.97
2019-05-11T13:47:51.754Z,97809.02
2019-05-11T13:52:47.908Z,97802.97
2019-05-11T13:57:53.038Z,97795.23
2019-05-11T14:03:00.363Z,97799.27
2019-05-11T14:08:07.880Z,97788.19
2019-05-11T14:13:12.524Z,97784.31
2019-05-11T14:18:18.901Z,97783.97
2019-05-11T14:23:24.074Z,97792.70
2019-05-11T14:28:29.459Z,97804.95
2019-05-11T14:33:38.531Z,97811.70
2019-05-11T14:38:43.794Z,97828.32
2019-05-11T14:43:49.177Z,97840.27
2019-05-11T14:48:55.137Z,97847.50
2019-05-11T14:54:00.442Z,97859.43
2019-05-11T14:59:09.007Z,97864.61
2019-05-11T15:04:14.686Z,97880.06
2019-05-11T15:09:19.755Z,97905.07
2019-05-11T15:14:25.228Z,97914.83
2019-05-11T15:19:30.299Z,97908.92
2019-05-11T15:24:38.337Z,97909.73
2019-05-11T15:29:43.051Z,97907.39
2019-05-11T15:34:48.864Z,97894.30
2019-05-11T15:39:56.258Z,97904.70
2019-05-11T15:45:01.739Z,97921.85
2019-05-11T15:50:08.377Z,97932.25
2019-05-11T15:55:14.750Z,97941.61
2019-05-11T16:00:20.972Z,97976.51
2019-05-11T16:05:28.524Z,98004.05
2019-05-11T16:10:33.981Z,98000.82
2019-05-11T16:15:40.188Z,98017.91
2019-05-11T16:20:49.923Z,98021.10
2019-05-11T16:25:55.207Z,98023.62
2019-05-11T16:31:00.827Z,98040.20
2019-05-11T16:36:08.758Z,98054.30
2019-05-11T16:41:13.057Z,98067.37
2019-05-11T16:46:18.122Z,98081.05
2019-05-11T16:51:23.479Z,98086.33
2019-05-11T16:56:28.773Z,98078.23
2019-05-11T17:01:34.203Z,98090.13
2019-05-11T17:06:39.356Z,98093.59
2019-05-11T17:11:44.592Z,98122.59
2019-05-11T17:16:49.746Z,98144.39
2019-05-11T17:21:54.892Z,98149.40
2019-05-11T17:26:59.883Z,98162.97
2019-05-11T17:32:05.460Z,98181.66
2019-05-11T17:37:10.716Z,98196.35
2019-05-11T17:42:18.183Z,98201.20
2019-05-11T17:47:23.823Z,98212.95
2019-05-11T17:52:29.170Z,98217.74
2019-05-11T17:57:34.477Z,98232.01
2019-05-11T18:02:39.713Z,98251.61
2019-05-11T18:07:44.852Z,98260.97
2019-05-11T18:12:50.050Z,98259.56
2019-05-11T18:17:55.761Z,98276.56
2019-05-11T18:23:01.193Z,98280.20
2019-05-11T18:28:07.117Z,98308.91
2019-05-11T18:33:12.266Z,98298.78
2019-05-11T18:38:17.945Z,98317.97
2019-05-11T18:43:23.190Z,98338.09
2019-05-11T18:48:29.092Z,98355.44
2019-05-11T18:53:34.269Z,98347.37
2019-05-11T18:58:40.011Z,98362.65
2019-05-11T19:03:45.167Z,98355.89
2019-05-11T19:08:50.330Z,98379.91
2019-05-11T19:13:55.446Z,98400.75
2019-05-11T19:19:00.601Z,98408.94
2019-05-11T19:24:07.031Z,98436.08
2019-05-11T19:29:12.537Z,98438.69
2019-05-11T19:34:20.379Z,98449.45
2019-05-11T19:39:25.388Z,98462.11
2019-05-11T19:44:30.462Z,98470.19
2019-05-11T19:49:35.750Z,98480.67
2019-05-11T19:54:41.703Z,98499.05
2019-05-11T19:59:48.102Z,98519.88
2019-05-11T20:04:54.259Z,98542.88
2019-05-11T20:09:59.421Z,98558.35
2019-05-11T20:15:05.340Z,98563.09
2019-05-11T20:20:10.591Z,98584.52
2019-05-11T20:25:18.046Z,98594.78
2019-05-11T20:30:22.514Z,98588.70
2019-05-11T20:35:28.143Z,98617.65
2019-05-11T20:40:35.101Z,98610.98
2019-05-11T20:45:40.114Z,98602.95
2019-05-11T20:50:48.344Z,98611.13
2019-05-11T20:55:53.659Z,98610.31
2019-05-11T21:00:58.741Z,98626.95
2019-05-11T21:06:03.818Z,98641.52
2019-05-11T21:11:09.000Z,98648.94
2019-05-11T21:16:14.453Z,98656.71
2019-05-11T21:21:19.609Z,98654.49
2019-05-11T21:26:24.693Z,98657.66
2019-05-11T21:31:31.229Z,98679.16
2019-05-11T21:36:37.922Z,98681.01
2019-05-11T21:41:43.136Z,98689.17
2019-05-11T21:46:48.589Z,98694.39
2019-05-11T21:52:03.922Z,98697.80
2019-05-11T21:57:00.496Z,98705.23
2019-05-11T22:02:10.649Z,98721.37
2019-05-11T22:07:13.057Z,98722.25
2019-05-11T22:12:18.793Z,98733.05
2019-05-11T22:17:23.929Z,98747.65
2019-05-11T22:22:28.998Z,98750.80
2019-05-11T22:27:34.011Z,98752.36
2019-05-11T22:32:40.141Z,98755.54
2019-05-11T22:37:45.146Z,98757.71
2019-05-11T22:42:50.337Z,98764.39
2019-05-11T22:47:55.353Z,98778.86
2019-05-11T22:53:00.497Z,98789.09
2019-05-11T22:58:05.576Z,98796.00
2019-05-11T23:03:11.179Z,98788.13
2019-05-11T23:08:18.166Z,98800.85
2019-05-11T23:13:23.391Z,98809.84
2019-05-11T23:18:28.794Z,98826.62
2019-05-11T23:23:33.903Z,98835.01
2019-05-11T23:28:38.901Z,98842.30
2019-05-11T23:33:44.062Z,98845.09
2019-05-11T23:38:49.142Z,98849.84
2019-05-11T23:43:54.586Z,98856.63
2019-05-11T23:49:00.019Z,98861.88
2019-05-11T23:54:05.169Z,98869.03
2019-05-11T23:59:11.589Z,98879.50
